sensor_id;sensor_type;location;lat;lon;timestamp;pressure;altitude;pressure_sealevel;temperature;humidity
39891;BME280;25564;53.312;9.790;2023-05-10T00:00:41;100074.81;;;15.42;40.58
39891;BME280;25564;53.312;9.790;2023-05-10T00:03:12;100082.13;;;15.38;40.88
39891;BME280;25564;53.312;9.790;2023-05-10T00:05:43;100079.72;;;15.32;41.04
39891;BME280;25564;53.312;9.790;2023-05-10T00:08:15;100074.69;;;15.26;41.36
39891;BME280;25564;53.312;9.790;2023-05-10T00:10:46;100061.94;;;15.12;41.36
39891;BME280;25564;53.312;9.790;2023-05-10T00:13:18;100071.91;;;15.09;41.34
39891;BME280;25564;53.312;9.790;2023-05-10T00:15:49;100075.81;;;15.01;41.81
39891;BME280;25564;53.312;9.790;2023-05-10T00:18:21;100070.03;;;14.92;41.59
39891;BME280;25564;53.312;9.790;2023-05-10T00:20:53;100069.44;;;14.85;41.98
39891;BME280;25564;53.312;9.790;2023-05-10T00:23:24;100064.50;;;14.76;42.35
39891;BME280;25564;53.312;9.790;2023-05-10T00:25:56;100052.34;;;14.69;42.50
39891;BME280;25564;53.312;9.790;2023-05-10T00:28:27;100041.47;;;14.55;42.70
39891;BME280;25564;53.312;9.790;2023-05-10T00:30:59;100054.50;;;14.61;42.63
39891;BME280;25564;53.312;9.790;2023-05-10T00:33:31;100045.69;;;14.59;42.73
39891;BME280;25564;53.312;9.790;2023-05-10T00:36:02;100045.88;;;14.56;43.13
39891;BME280;25564;53.312;9.790;2023-05-10T00:38:34;100032.06;;;14.46;43.04
39891;BME280;25564;53.312;9.790;2023-05-10T00:41:05;100042.75;;;14.46;42.79
39891;BME280;25564;53.312;9.790;2023-05-10T00:43:36;100041.16;;;14.40;43.29
39891;BME280;25564;53.312;9.790;2023-05-10T00:46:08;100039.56;;;14.36;43.39
39891;BME280;25564;53.312;9.790;2023-05-10T00:48:39;100044.91;;;14.36;43.52
39891;BME280;25564;53.312;9.790;2023-05-10T00:51:11;100040.63;;;14.32;43.46
39891;BME280;25564;53.312;9.790;2023-05-10T00:53:44;100037.31;;;14.27;44.04
39891;BME280;25564;53.312;9.790;2023-05-10T00:56:16;100038.38;;;14.23;43.80
39891;BME280;25564;53.312;9.790;2023-05-10T00:58:48;100016.81;;;14.07;44.59
39891;BME280;25564;53.312;9.790;2023-05-10T01:01:20;100036.91;;;14.16;44.06
39891;BME280;25564;53.312;9.790;2023-05-10T01:03:52;100029.91;;;14.14;44.30
39891;BME280;25564;53.312;9.790;2023-05-10T01:06:23;100017.13;;;14.00;44.68
39891;BME280;25564;53.312;9.790;2023-05-10T01:08:55;100021.41;;;14.04;44.38
39891;BME280;25564;53.312;9.790;2023-05-10T01:11:27;100024.22;;;14.01;44.82
39891;BME280;25564;53.312;9.790;2023-05-10T01:14:01;100023.41;;;13.99;44.78
39891;BME280;25564;53.312;9.790;2023-05-10T01:16:36;100014.00;;;13.90;44.80
39891;BME280;25564;53.312;9.790;2023-05-10T01:19:14;100019.25;;;13.92;45.48
39891;BME280;25564;53.312;9.790;2023-05-10T01:34:08;100015.03;;;13.66;45.76
39891;BME280;25564;53.312;9.790;2023-05-10T01:37:09;100021.34;;;13.63;45.76
39891;BME280;25564;53.312;9.790;2023-05-10T01:39:55;100023.22;;;13.61;46.05
39891;BME280;25564;53.312;9.790;2023-05-10T01:42:37;100018.13;;;13.55;46.21
39891;BME280;25564;53.312;9.790;2023-05-10T01:45:27;100020.09;;;13.52;46.51
39891;BME280;25564;53.312;9.790;2023-05-10T01:48:06;100013.19;;;13.46;46.54
39891;BME280;25564;53.312;9.790;2023-05-10T01:50:42;100001.19;;;13.36;46.60
39891;BME280;25564;53.312;9.790;2023-05-10T01:53:17;100017.97;;;13.38;46.69
39891;BME280;25564;53.312;9.790;2023-05-10T01:55:52;100013.56;;;13.37;46.58
39891;BME280;25564;53.312;9.790;2023-05-10T01:58:29;100010.97;;;13.35;46.88
39891;BME280;25564;53.312;9.790;2023-05-10T02:01:03;99994.59;;;13.23;47.02
39891;BME280;25564;53.312;9.790;2023-05-10T02:03:36;99998.19;;;13.22;47.26
39891;BME280;25564;53.312;9.790;2023-05-10T02:06:10;100015.69;;;13.29;47.38
39891;BME280;25564;53.312;9.790;2023-05-10T02:08:42;100015.00;;;13.24;47.48
39891;BME280;25564;53.312;9.790;2023-05-10T02:11:14;100009.19;;;13.13;47.50
39891;BME280;25564;53.312;9.790;2023-05-10T02:13:48;100011.91;;;13.11;47.90
39891;BME280;25564;53.312;9.790;2023-05-10T02:16:23;100020.66;;;13.15;47.85
39891;BME280;25564;53.312;9.790;2023-05-10T02:18:56;100024.34;;;13.10;47.84
39891;BME280;25564;53.312;9.790;2023-05-10T02:21:30;99998.50;;;12.91;47.83
39891;BME280;25564;53.312;9.790;2023-05-10T02:24:03;100023.78;;;13.02;47.87
39891;BME280;25564;53.312;9.790;2023-05-10T02:26:35;100022.97;;;13.00;47.88
39891;BME280;25564;53.312;9.790;2023-05-10T02:29:08;100016.91;;;12.97;48.19
39891;BME280;25564;53.312;9.790;2023-05-10T02:31:41;100025.69;;;12.99;48.54
39891;BME280;25564;53.312;9.790;2023-05-10T02:34:14;100017.19;;;12.89;48.39
39891;BME280;25564;53.312;9.790;2023-05-10T02:36:46;100025.00;;;12.94;48.43
39891;BME280;25564;53.312;9.790;2023-05-10T02:39:19;100016.16;;;12.93;48.87
39891;BME280;25564;53.312;9.790;2023-05-10T02:41:52;100016.44;;;12.86;48.91
39891;BME280;25564;53.312;9.790;2023-05-10T02:44:26;100013.78;;;12.86;49.02
39891;BME280;25564;53.312;9.790;2023-05-10T02:46:59;100015.63;;;12.84;49.22
39891;BME280;25564;53.312;9.790;2023-05-10T02:49:31;100019.03;;;12.87;49.34
39891;BME280;25564;53.312;9.790;2023-05-10T02:52:05;100019.16;;;12.84;49.88
39891;BME280;25564;53.312;9.790;2023-05-10T02:54:43;100016.56;;;12.83;49.54
39891;BME280;25564;53.312;9.790;2023-05-10T02:57:40;100011.19;;;12.84;49.79
39891;BME280;25564;53.312;9.790;2023-05-10T03:00:13;100015.50;;;12.87;49.79
39891;BME280;25564;53.312;9.790;2023-05-10T03:02:44;100011.97;;;12.86;49.60
39891;BME280;25564;53.312;9.790;2023-05-10T03:05:16;100012.97;;;12.84;49.88
39891;BME280;25564;53.312;9.790;2023-05-10T03:07:48;99993.94;;;12.71;49.94
39891;BME280;25564;53.312;9.790;2023-05-10T03:10:22;99992.06;;;12.73;50.12
39891;BME280;25564;53.312;9.790;2023-05-10T03:13:16;100011.22;;;12.83;50.38
39891;BME280;25564;53.312;9.790;2023-05-10T03:19:01;99995.66;;;12.72;50.54
39891;BME280;25564;53.312;9.790;2023-05-10T03:21:38;100003.41;;;12.78;50.36
39891;BME280;25564;53.312;9.790;2023-05-10T03:24:13;100004.34;;;12.77;50.05
39891;BME280;25564;53.312;9.790;2023-05-10T03:26:47;99999.94;;;12.76;50.65
39891;BME280;25564;53.312;9.790;2023-05-10T03:29:20;99992.06;;;12.73;50.71
39891;BME280;25564;53.312;9.790;2023-05-10T03:31:51;100001.78;;;12.74;50.81
39891;BME280;25564;53.312;9.790;2023-05-10T03:34:24;100000.94;;;12.73;51.10
39891;BME280;25564;53.312;9.790;2023-05-10T03:36:55;100001.78;;;12.74;50.99
39891;BME280;25564;53.312;9.790;2023-05-10T03:39:27;99997.41;;;12.73;51.24
39891;BME280;25564;53.312;9.790;2023-05-10T03:41:58;100001.91;;;12.71;51.28
39891;BME280;25564;53.312;9.790;2023-05-10T03:44:30;100008.91;;;12.73;51.45
39891;BME280;25564;53.312;9.790;2023-05-10T03:47:01;99988.78;;;12.66;51.40
39891;BME280;25564;53.312;9.790;2023-05-10T03:49:32;99987.91;;;12.66;51.60
39891;BME280;25564;53.312;9.790;2023-05-10T03:52:04;100009.50;;;12.82;51.51
39891;BME280;25564;53.312;9.790;2023-05-10T03:54:36;100006.66;;;12.86;51.38
39891;BME280;25564;53.312;9.790;2023-05-10T03:57:07;100002.94;;;12.90;51.65
39891;BME280;25564;53.312;9.790;2023-05-10T03:59:38;99994.78;;;12.95;51.48
39891;BME280;25564;53.312;9.790;2023-05-10T04:02:10;99997.34;;;12.98;51.60
39891;BME280;25564;53.312;9.790;2023-05-10T04:04:41;99990.97;;;13.02;51.50
39891;BME280;25564;53.312;9.790;2023-05-10T04:07:13;99995.19;;;13.07;51.59
39891;BME280;25564;53.312;9.790;2023-05-10T04:09:45;99996.78;;;13.12;51.65
39891;BME280;25564;53.312;9.790;2023-05-10T04:12:16;100003.72;;;13.16;51.83
39891;BME280;25564;53.312;9.790;2023-05-10T04:14:47;100000.06;;;13.20;51.87
39891;BME280;25564;53.312;9.790;2023-05-10T04:17:19;100002.47;;;13.26;51.82
39891;BME280;25564;53.312;9.790;2023-05-10T04:19:50;99992.63;;;13.28;51.66
39891;BME280;25564;53.312;9.790;2023-05-10T04:22:24;99999.44;;;13.35;51.70
39891;BME280;25564;53.312;9.790;2023-05-10T04:24:55;99996.66;;;13.38;51.54
39891;BME280;25564;53.312;9.790;2023-05-10T04:27:26;99992.00;;;13.43;51.88
39891;BME280;25564;53.312;9.790;2023-05-10T04:29:58;99998.00;;;13.48;51.74
39891;BME280;25564;53.312;9.790;2023-05-10T04:32:29;99990.75;;;13.52;51.71
39891;BME280;25564;53.312;9.790;2023-05-10T04:35:01;99972.34;;;13.46;51.90
39891;BME280;25564;53.312;9.790;2023-05-10T04:37:34;99992.22;;;13.59;51.58
39891;BME280;25564;53.312;9.790;2023-05-10T04:40:06;99992.75;;;13.67;51.78
39891;BME280;25564;53.312;9.790;2023-05-10T04:42:39;99995.09;;;13.74;51.69
39891;BME280;25564;53.312;9.790;2023-05-10T04:45:12;99994.78;;;13.82;51.68
39891;BME280;25564;53.312;9.790;2023-05-10T04:47:45;99996.25;;;13.89;51.58
39891;BME280;25564;53.312;9.790;2023-05-10T04:50:17;99971.66;;;13.83;51.44
39891;BME280;25564;53.312;9.790;2023-05-10T04:52:48;99996.72;;;13.99;51.53
39891;BME280;25564;53.312;9.790;2023-05-10T04:55:20;99999.06;;;14.06;51.39
39891;BME280;25564;53.312;9.790;2023-05-10T04:57:51;100006.94;;;14.10;51.54
39891;BME280;25564;53.312;9.790;2023-05-10T05:00:23;100007.81;;;14.10;51.53
39891;BME280;25564;53.312;9.790;2023-05-10T05:02:54;100012.81;;;14.18;51.54
39891;BME280;25564;53.312;9.790;2023-05-10T05:05:26;99997.66;;;14.18;51.57
39891;BME280;25564;53.312;9.790;2023-05-10T05:07:57;100013.09;;;14.32;51.34
39891;BME280;25564;53.312;9.790;2023-05-10T05:10:28;100017.22;;;14.39;51.54
39891;BME280;25564;53.312;9.790;2023-05-10T05:12:59;100006.28;;;14.45;51.17
39891;BME280;25564;53.312;9.790;2023-05-10T05:15:31;100006.97;;;14.50;51.33
39891;BME280;25564;53.312;9.790;2023-05-10T05:18:02;100011.28;;;14.53;51.32
39891;BME280;25564;53.312;9.790;2023-05-10T05:20:34;100012.09;;;14.55;51.27
39891;BME280;25564;53.312;9.790;2023-05-10T05:23:05;100016.31;;;14.59;51.52
39891;BME280;25564;53.312;9.790;2023-05-10T05:25:38;100017.78;;;14.66;51.32
39891;BME280;25564;53.312;9.790;2023-05-10T05:28:10;100023.91;;;14.68;51.26
39891;BME280;25564;53.312;9.790;2023-05-10T05:30:41;100004.72;;;14.60;51.19
39891;BME280;25564;53.312;9.790;2023-05-10T05:33:15;100010.44;;;14.71;51.04
39891;BME280;25564;53.312;9.790;2023-05-10T05:35:47;100017.28;;;14.77;51.21
39891;BME280;25564;53.312;9.790;2023-05-10T05:38:21;100018.88;;;14.81;51.09
39891;BME280;25564;53.312;9.790;2023-05-10T05:40:53;100028.41;;;14.86;51.06
39891;BME280;25564;53.312;9.790;2023-05-10T05:43:24;100023.44;;;14.97;51.13
39891;BME280;25564;53.312;9.790;2023-05-10T05:45:56;100014.94;;;15.08;51.27
39891;BME280;25564;53.312;9.790;2023-05-10T05:48:29;100014.34;;;15.20;51.14
39891;BME280;25564;53.312;9.790;2023-05-10T05:51:01;100017.31;;;15.33;50.71
39891;BME280;25564;53.312;9.790;2023-05-10T05:53:33;100017.19;;;15.53;50.30
39891;BME280;25564;53.312;9.790;2023-05-10T05:56:04;100026.50;;;15.63;50.18
39891;BME280;25564;53.312;9.790;2023-05-10T05:58:36;100003.22;;;15.65;50.20
39891;BME280;25564;53.312;9.790;2023-05-10T06:01:07;100024.41;;;15.87;50.30
39891;BME280;25564;53.312;9.790;2023-05-10T06:03:39;100017.19;;;15.89;49.98
39891;BME280;25564;53.312;9.790;2023-05-10T06:06:11;100026.97;;;16.08;50.15
39891;BME280;25564;53.312;9.790;2023-05-10T06:08:43;100033.19;;;16.25;49.88
39891;BME280;25564;53.312;9.790;2023-05-10T06:11:14;100029.38;;;16.47;49.71
39891;BME280;25564;53.312;9.790;2023-05-10T06:13:46;100024.94;;;16.63;49.31
39891;BME280;25564;53.312;9.790;2023-05-10T06:16:18;100036.84;;;16.90;49.20
39891;BME280;25564;53.312;9.790;2023-05-10T06:18:49;100038.53;;;17.09;48.92
39891;BME280;25564;53.312;9.790;2023-05-10T06:21:20;100046.84;;;17.20;49.01
39891;BME280;25564;53.312;9.790;2023-05-10T06:23:52;100043.31;;;17.35;48.61
39891;BME280;25564;53.312;9.790;2023-05-10T06:26:23;100031.97;;;17.46;48.37
39891;BME280;25564;53.312;9.790;2023-05-10T06:28:54;100054.81;;;17.69;48.23
39891;BME280;25564;53.312;9.790;2023-05-10T06:31:26;100052.72;;;17.74;48.14
39891;BME280;25564;53.312;9.790;2023-05-10T06:33:57;100032.31;;;17.71;48.14
39891;BME280;25564;53.312;9.790;2023-05-10T06:36:28;100048.03;;;17.93;48.22
39891;BME280;25564;53.312;9.790;2023-05-10T06:39:00;100045.19;;;17.80;47.84
39891;BME280;25564;53.312;9.790;2023-05-10T06:41:32;100050.66;;;17.79;48.03
39891;BME280;25564;53.312;9.790;2023-05-10T06:44:03;100047.19;;;17.77;47.77
39891;BME280;25564;53.312;9.790;2023-05-10T06:46:35;100038.53;;;17.72;47.73
39891;BME280;25564;53.312;9.790;2023-05-10T06:49:06;100057.47;;;17.84;48.02
39891;BME280;25564;53.312;9.790;2023-05-10T06:51:37;100058.63;;;17.80;47.03
39891;BME280;25564;53.312;9.790;2023-05-10T06:54:09;100077.66;;;17.76;47.24
39891;BME280;25564;53.312;9.790;2023-05-10T06:56:40;100068.94;;;17.56;47.94
39891;BME280;25564;53.312;9.790;2023-05-10T06:59:11;100073.25;;;17.59;47.69
39891;BME280;25564;53.312;9.790;2023-05-10T07:01:44;100079.75;;;17.55;47.76
39891;BME280;25564;53.312;9.790;2023-05-10T07:04:16;100070.75;;;17.40;47.91
39891;BME280;25564;53.312;9.790;2023-05-10T07:06:48;100084.94;;;17.42;47.88
39891;BME280;25564;53.312;9.790;2023-05-10T07:09:20;100079.03;;;17.36;48.32
39891;BME280;25564;53.312;9.790;2023-05-10T07:11:52;100081.19;;;17.29;48.19
39891;BME280;25564;53.312;9.790;2023-05-10T07:14:23;100090.19;;;17.28;48.98
39891;BME280;25564;53.312;9.790;2023-05-10T07:16:54;100070.38;;;17.15;49.09
39891;BME280;25564;53.312;9.790;2023-05-10T07:19:26;100084.56;;;17.17;49.18
39891;BME280;25564;53.312;9.790;2023-05-10T07:21:58;100081.19;;;17.13;49.35
39891;BME280;25564;53.312;9.790;2023-05-10T07:24:29;100066.00;;;16.96;49.41
39891;BME280;25564;53.312;9.790;2023-05-10T07:27:01;100079.41;;;16.96;49.70
39891;BME280;25564;53.312;9.790;2023-05-10T07:29:33;100076.44;;;16.85;50.29
39891;BME280;25564;53.312;9.790;2023-05-10T07:32:04;100088.09;;;16.84;50.35
39891;BME280;25564;53.312;9.790;2023-05-10T07:34:36;100087.25;;;16.84;50.41
39891;BME280;25564;53.312;9.790;2023-05-10T07:37:08;100087.41;;;16.81;50.73
39891;BME280;25564;53.312;9.790;2023-05-10T07:39:39;100081.81;;;16.85;50.85
39891;BME280;25564;53.312;9.790;2023-05-10T07:42:11;100090.59;;;17.05;51.29
39891;BME280;25564;53.312;9.790;2023-05-10T07:44:42;100099.53;;;17.21;51.40
39891;BME280;25564;53.312;9.790;2023-05-10T07:47:14;100104.56;;;17.27;51.44
39891;BME280;25564;53.312;9.790;2023-05-10T07:49:45;100100.84;;;17.29;51.64
39891;BME280;25564;53.312;9.790;2023-05-10T07:52:16;100110.88;;;17.26;51.35
39891;BME280;25564;53.312;9.790;2023-05-10T07:54:48;100102.91;;;17.24;52.10
39891;BME280;25564;53.312;9.790;2023-05-10T07:57:19;100106.28;;;17.28;51.88
39891;BME280;25564;53.312;9.790;2023-05-10T07:59:50;100104.84;;;17.38;52.09
39891;BME280;25564;53.312;9.790;2023-05-10T08:02:22;100109.59;;;17.49;52.62
39891;BME280;25564;53.312;9.790;2023-05-10T08:04:53;100118.19;;;17.55;52.42
39891;BME280;25564;53.312;9.790;2023-05-10T08:07:25;100113.50;;;17.59;52.51
39891;BME280;25564;53.312;9.790;2023-05-10T08:10:03;100101.72;;;17.61;52.94
39891;BME280;25564;53.312;9.790;2023-05-10T08:12:35;100108.50;;;17.69;52.95
39891;BME280;25564;53.312;9.790;2023-05-10T08:15:06;100109.88;;;17.76;53.19
39891;BME280;25564;53.312;9.790;2023-05-10T08:17:38;100098.19;;;17.77;53.14
39891;BME280;25564;53.312;9.790;2023-05-10T08:20:09;100125.53;;;17.99;53.24
39891;BME280;25564;53.312;9.790;2023-05-10T08:22:41;100126.03;;;18.06;53.52
39891;BME280;25564;53.312;9.790;2023-05-10T08:25:12;100118.69;;;17.93;53.77
39891;BME280;25564;53.312;9.790;2023-05-10T08:27:43;100131.69;;;18.01;54.39
39891;BME280;25564;53.312;9.790;2023-05-10T08:30:15;100136.53;;;18.10;54.38
39891;BME280;25564;53.312;9.790;2023-05-10T08:32:46;100141.19;;;18.22;55.14
39891;BME280;25564;53.312;9.790;2023-05-10T08:35:18;100146.38;;;18.25;54.67
39891;BME280;25564;53.312;9.790;2023-05-10T08:37:49;100138.25;;;18.11;54.52
39891;BME280;25564;53.312;9.790;2023-05-10T08:40:20;100152.38;;;17.99;55.18
39891;BME280;25564;53.312;9.790;2023-05-10T08:43:06;100152.47;;;17.82;55.48
39891;BME280;25564;53.312;9.790;2023-05-10T08:45:43;100153.66;;;17.60;55.56
39891;BME280;25564;53.312;9.790;2023-05-10T08:48:16;100149.03;;;17.31;56.44
39891;BME280;25564;53.312;9.790;2023-05-10T08:50:48;100156.47;;;17.26;56.80
39891;BME280;25564;53.312;9.790;2023-05-10T08:53:23;100172.56;;;17.26;57.20
39891;BME280;25564;53.312;9.790;2023-05-10T08:55:56;100179.03;;;17.22;57.63
39891;BME280;25564;53.312;9.790;2023-05-10T08:58:28;100159.03;;;16.94;57.78
39891;BME280;25564;53.312;9.790;2023-05-10T09:01:00;100159.22;;;16.74;58.33
39891;BME280;25564;53.312;9.790;2023-05-10T09:03:32;100185.13;;;16.74;59.02
39891;BME280;25564;53.312;9.790;2023-05-10T09:06:03;100197.28;;;16.63;59.34
39891;BME280;25564;53.312;9.790;2023-05-10T09:08:36;100190.72;;;16.52;60.10
39891;BME280;25564;53.312;9.790;2023-05-10T09:11:08;100161.53;;;16.28;60.29
39891;BME280;25564;53.312;9.790;2023-05-10T09:13:41;100203.06;;;16.37;60.98
39891;BME280;25564;53.312;9.790;2023-05-10T09:16:13;100208.00;;;16.27;61.74
39891;BME280;25564;53.312;9.790;2023-05-10T09:18:50;100200.72;;;16.12;62.29
39891;BME280;25564;53.312;9.790;2023-05-10T09:21:22;100213.69;;;16.02;62.98
39891;BME280;25564;53.312;9.790;2023-05-10T09:23:53;100216.66;;;15.96;63.28
39891;BME280;25564;53.312;9.790;2023-05-10T09:26:25;100202.03;;;15.85;64.02
39891;BME280;25564;53.312;9.790;2023-05-10T09:28:58;100219.25;;;15.79;64.60
39891;BME280;25564;53.312;9.790;2023-05-10T09:31:48;100218.53;;;15.57;65.57
39891;BME280;25564;53.312;9.790;2023-05-10T09:34:30;100210.94;;;15.27;66.48
39891;BME280;25564;53.312;9.790;2023-05-10T09:37:02;100209.28;;;15.04;67.53
39891;BME280;25564;53.312;9.790;2023-05-10T09:39:38;100213.16;;;14.97;68.43
39891;BME280;25564;53.312;9.790;2023-05-10T09:42:10;100227.06;;;15.05;69.38
39891;BME280;25564;53.312;9.790;2023-05-10T09:44:41;100239.00;;;15.17;70.43
39891;BME280;25564;53.312;9.790;2023-05-10T09:47:18;100229.06;;;15.21;71.59
39891;BME280;25564;53.312;9.790;2023-05-10T09:49:52;100240.63;;;15.21;73.54
39891;BME280;25564;53.312;9.790;2023-05-10T09:52:24;100244.09;;;15.23;74.28
39891;BME280;25564;53.312;9.790;2023-05-10T09:54:56;100241.56;;;15.20;75.29
39891;BME280;25564;53.312;9.790;2023-05-10T09:57:27;100242.34;;;15.22;75.99
39891;BME280;25564;53.312;9.790;2023-05-10T10:00:00;100249.91;;;15.33;77.63
39891;BME280;25564;53.312;9.790;2023-05-10T10:02:31;100253.31;;;15.36;77.97
39891;BME280;25564;53.312;9.790;2023-05-10T10:05:03;100251.78;;;15.31;78.43
39891;BME280;25564;53.312;9.790;2023-05-10T10:07:35;100251.97;;;15.26;79.12
39891;BME280;25564;53.312;9.790;2023-05-10T10:10:07;100254.44;;;15.31;79.76
39891;BME280;25564;53.312;9.790;2023-05-10T10:12:42;100255.03;;;15.37;80.53
39891;BME280;25564;53.312;9.790;2023-05-10T10:15:14;100253.63;;;15.49;80.70
39891;BME280;25564;53.312;9.790;2023-05-10T10:17:48;100229.28;;;15.55;81.21
39891;BME280;25564;53.312;9.790;2023-05-10T10:20:22;100244.34;;;15.77;81.77
39891;BME280;25564;53.312;9.790;2023-05-10T10:22:53;100238.91;;;15.78;81.66
39891;BME280;25564;53.312;9.790;2023-05-10T10:25:25;100244.56;;;15.91;82.03
39891;BME280;25564;53.312;9.790;2023-05-10T10:28:03;100261.56;;;16.09;82.58
39891;BME280;25564;53.312;9.790;2023-05-10T10:30:46;100259.47;;;16.15;82.55
39891;BME280;25564;53.312;9.790;2023-05-10T10:33:51;100268.06;;;16.22;82.69
39891;BME280;25564;53.312;9.790;2023-05-10T10:36:25;100249.47;;;16.19;83.28
39891;BME280;25564;53.312;9.790;2023-05-10T10:38:59;100275.88;;;16.26;83.33
39891;BME280;25564;53.312;9.790;2023-05-10T10:41:36;100242.97;;;16.06;83.63
39891;BME280;25564;53.312;9.790;2023-05-10T10:47:20;100281.38;;;16.23;84.07
39891;BME280;25564;53.312;9.790;2023-05-10T10:50:04;100269.31;;;16.15;84.66
39891;BME280;25564;53.312;9.790;2023-05-10T10:52:43;100285.88;;;16.23;84.88
39891;BME280;25564;53.312;9.790;2023-05-10T10:55:19;100279.78;;;16.19;85.02
39891;BME280;25564;53.312;9.790;2023-05-10T10:57:55;100280.22;;;16.10;85.17
39891;BME280;25564;53.312;9.790;2023-05-10T11:00:38;100266.91;;;15.90;85.80
39891;BME280;25564;53.312;9.790;2023-05-10T11:03:13;100280.28;;;15.90;86.13
39891;BME280;25564;53.312;9.790;2023-05-10T11:08:28;100284.50;;;16.14;86.61
39891;BME280;25564;53.312;9.790;2023-05-10T11:13:37;100282.31;;;16.41;86.70
39891;BME280;25564;53.312;9.790;2023-05-10T11:19:03;100277.72;;;16.62;86.32
39891;BME280;25564;53.312;9.790;2023-05-10T11:21:48;100268.59;;;16.66;87.04
39891;BME280;25564;53.312;9.790;2023-05-10T11:24:22;100271.56;;;16.60;86.74
39891;BME280;25564;53.312;9.790;2023-05-10T11:26:53;100280.09;;;16.68;87.50
39891;BME280;25564;53.312;9.790;2023-05-10T11:29:25;100286.88;;;16.75;87.88
39891;BME280;25564;53.312;9.790;2023-05-10T11:31:59;100277.75;;;16.79;87.97
39891;BME280;25564;53.312;9.790;2023-05-10T11:34:31;100281.78;;;16.88;88.11
39891;BME280;25564;53.312;9.790;2023-05-10T11:37:05;100300.66;;;17.21;88.29
39891;BME280;25564;53.312;9.790;2023-05-10T11:39:37;100300.25;;;17.46;88.33
39891;BME280;25564;53.312;9.790;2023-05-10T11:42:08;100299.44;;;17.61;87.84
39891;BME280;25564;53.312;9.790;2023-05-10T11:44:41;100301.13;;;17.79;87.90
39891;BME280;25564;53.312;9.790;2023-05-10T11:47:13;100305.75;;;17.93;88.08
39891;BME280;25564;53.312;9.790;2023-05-10T11:49:45;100291.72;;;17.88;87.77
39891;BME280;25564;53.312;9.790;2023-05-10T11:52:18;100295.19;;;17.90;87.82
39891;BME280;25564;53.312;9.790;2023-05-10T11:54:53;100269.28;;;17.89;87.88
39891;BME280;25564;53.312;9.790;2023-05-10T11:57:26;100305.91;;;18.23;88.33
39891;BME280;25564;53.312;9.790;2023-05-10T11:59:59;100296.13;;;18.38;88.29
39891;BME280;25564;53.312;9.790;2023-05-10T12:02:30;100309.19;;;18.59;88.02
39891;BME280;25564;53.312;9.790;2023-05-10T12:05:03;100314.56;;;18.75;87.99
39891;BME280;25564;53.312;9.790;2023-05-10T12:07:36;100304.59;;;18.77;87.88
39891;BME280;25564;53.312;9.790;2023-05-10T12:10:12;100315.69;;;18.87;87.18
39891;BME280;25564;53.312;9.790;2023-05-10T12:12:51;100300.94;;;18.78;87.20
39891;BME280;25564;53.312;9.790;2023-05-10T12:15:24;100320.78;;;18.91;86.99
39891;BME280;25564;53.312;9.790;2023-05-10T12:17:56;100323.81;;;19.01;87.37
39891;BME280;25564;53.312;9.790;2023-05-10T12:20:28;100329.69;;;19.08;86.96
39891;BME280;25564;53.312;9.790;2023-05-10T12:23:00;100330.28;;;19.13;86.85
39891;BME280;25564;53.312;9.790;2023-05-10T12:25:35;100300.97;;;19.08;86.86
39891;BME280;25564;53.312;9.790;2023-05-10T12:28:08;100326.69;;;19.28;87.39
39891;BME280;25564;53.312;9.790;2023-05-10T12:30:40;100323.81;;;19.31;87.45
39891;BME280;25564;53.312;9.790;2023-05-10T12:33:12;100310.38;;;19.31;86.75
39891;BME280;25564;53.312;9.790;2023-05-10T12:35:53;100323.84;;;19.45;86.83
39891;BME280;25564;53.312;9.790;2023-05-10T12:38:29;100323.56;;;19.50;86.72
39891;BME280;25564;53.312;9.790;2023-05-10T12:41:07;100333.53;;;19.64;86.06
39891;BME280;25564;53.312;9.790;2023-05-10T12:43:39;100332.38;;;19.68;86.03
39891;BME280;25564;53.312;9.790;2023-05-10T12:46:13;100334.88;;;19.85;86.13
39891;BME280;25564;53.312;9.790;2023-05-10T12:48:45;100341.44;;;19.95;85.69
39891;BME280;25564;53.312;9.790;2023-05-10T12:51:18;100342.59;;;20.05;85.89
39891;BME280;25564;53.312;9.790;2023-05-10T12:53:53;100342.97;;;20.28;85.27
39891;BME280;25564;53.312;9.790;2023-05-10T12:56:25;100349.72;;;20.49;84.71
39891;BME280;25564;53.312;9.790;2023-05-10T12:58:57;100338.94;;;20.49;84.47
39891;BME280;25564;53.312;9.790;2023-05-10T13:01:28;100355.28;;;20.60;83.74
39891;BME280;25564;53.312;9.790;2023-05-10T13:03:59;100351.72;;;20.60;83.82
39891;BME280;25564;53.312;9.790;2023-05-10T13:06:31;100351.78;;;20.72;83.53
39891;BME280;25564;53.312;9.790;2023-05-10T13:09:03;100341.34;;;20.80;83.71
39891;BME280;25564;53.312;9.790;2023-05-10T13:11:34;100360.53;;;21.03;83.42
39891;BME280;25564;53.312;9.790;2023-05-10T13:14:06;100348.41;;;20.96;83.07
39891;BME280;25564;53.312;9.790;2023-05-10T13:16:38;100356.44;;;21.10;83.34
39891;BME280;25564;53.312;9.790;2023-05-10T13:19:09;100358.44;;;21.20;83.08
39891;BME280;25564;53.312;9.790;2023-05-10T13:21:43;100359.06;;;21.11;82.92
39891;BME280;25564;53.312;9.790;2023-05-10T13:24:15;100361.38;;;21.03;82.41
39891;BME280;25564;53.312;9.790;2023-05-10T13:26:48;100357.66;;;20.92;82.64
39891;BME280;25564;53.312;9.790;2023-05-10T13:29:19;100353.84;;;20.81;82.41
39891;BME280;25564;53.312;9.790;2023-05-10T13:31:52;100352.44;;;20.76;82.29
39891;BME280;25564;53.312;9.790;2023-05-10T13:34:23;100344.56;;;20.73;81.65
39891;BME280;25564;53.312;9.790;2023-05-10T13:36:55;100357.16;;;20.99;81.73
39891;BME280;25564;53.312;9.790;2023-05-10T13:39:27;100364.78;;;21.19;81.75
39891;BME280;25564;53.312;9.790;2023-05-10T13:41:58;100358.50;;;21.33;81.63
39891;BME280;25564;53.312;9.790;2023-05-10T13:44:29;100363.84;;;21.47;81.70
39891;BME280;25564;53.312;9.790;2023-05-10T13:47:01;100358.78;;;21.56;81.36